Pawtucket, RI

10:52 PM EDT on August 30, 2014 (GMT -0400)
Ladd Observatory | Change Station
CLOSE
Current Station
Personal Weather Station
Location: Providence, RI
Elevation: 226 ft
Nearby Weather Stations

Elev 226 ft 41.84 °N, 71.40 °W | Updated 36 seconds ago

Clear
Clear
65.9 °F
Feels Like 65.9 °F
N
2.0
Wind Variable Wind from South
Gusts 4.0 mph

Today
High -- | Low -- °F
--% Chance of Precip.
Yesterday
High -- | Low -- °F
Precip. -- in
6:09 AM 7:22 PM
Waxing Crescent, 26% visible
Pressure 30.17 in
Visibility 10.0 miles
Clouds Clear
Dew Point 61 °F
Humidity 84%
Rainfall 0.00 in
Snow Depth Not available.
UV 0 out of 12
Pollen 7.00 out of 12
Ozone Good
PM2.5 Good
Flu Activity Not available.
METAR KSFZ 310235Z 19004KT 10SM CLR 17/13 A3017 RMK AO1

More Conditions Fewer Conditions

Pressure 30.17 in
Visibility 10.0 miles
Clouds Clear
Dew Point 61 °F
Humidity 84%
Rainfall 0.00 in
Snow Depth Not available.
UV 0 out of 12
Pollen 7.00 out of 12
Ozone Good
PM2.5 Good
Flu Activity Not available.
METAR KSFZ 310235Z 19004KT 10SM CLR 17/13 A3017 RMK AO1

More Conditions Fewer Conditions

10-Day Weather Forecast

Almanac

Astronomy

Aug. 30, 2014 Rise Set
Actual Time 6:09 AM EDT 7:22 PM EDT
Civil Twilight 5:40 AM EDT 7:51 PM EDT
Nautical Twilight 5:05 AM EDT 8:25 PM EDT
Astronomical Twilight 4:29 AM EDT 9:01 PM EDT
Moon 10:58 AM EDT (8/30) 9:49 PM EDT (8/30)
Length of Visible Light 14h 10m
Length of Day
13h 13m
Tomorrow will be 2m 41s shorter.
Waxing Crescent, 26% of the Moon is Illuminated
Today
Waxing Crescent
Sep 2
First Quarter
Sep 8
Full
Sep 15
Last Quarter
Sep 24
New

Today's Extremes

State Highs State Lows

Community

WunderPhotos

Upload Photos

1,748,749 photos uploaded!

Nearby

Air Quality

  Air Quality AQ Index Pollutant
Yesterday Good
OZONE
Yesterday Good
PM2.5
Current Good
PM2.5
Current Good
OZONE
Saturday Good
OZONE
Saturday Good
PM2.5
Sunday Good
OZONE
Sunday Good
PM2.5
Monday Good
OZONE
Monday Good
PM2.5

Snow Depth

Station Depth Elevation
No new snow has been reported.

Earthquake Activity

City Distance Mag. Time & Date
No recent earthquake activity has been reported nearby.
Minimum magnitude displayed is 2.5.

Coastal Water Temperatures

Place Temperature
Newport, RI 69.1 °F
Quonset Point, RI 73.0 °F
Conimicut Light, RI 72.0 °F

Nearby Weather Stations